Página principal
METAR-TAF:

METAR-TAF

Aeroportos :

Caracas, Venezuela

Aeroporto Internacional Simón Bolívar

latitude: 10-36N, longitude: 066-59W, altura: 43 m

Observação actual do tempo

O boletim foi feito há 48 minutos, às 11:00 UTC
Vento calmo
Temperatura 24°C
Humidade 74%
Pressão 1014 hPa
Visibilidade 10 km ou mais

METAR: SVMI 241100Z 00000KT 9999 FEW16 24/19 Q1014

Hora: 07:48 (11:48 UTC)

Previsão

O boletim foi feito há 1 hora e 48 minutos, às 10:00 UTC
Previsão válida de 24 às 12 UTC a 25 às 12 UTC
Vento 5 kt de nordeste
Visibilidade 10 km ou mais
Nuvens dispersasa uma altura de 1300 ft
Tornando-se
de 24 às 12 UTC a 24 às 16 UTC
Vento 8 kt de este
Poucas nuvensa uma altura de 1600 ft
Nuvens dispersasa uma altura de 7000 ft

TAF: SVMI 241000Z 2412/2512 05005KT 9999 SCT013 TX33/1800Z TN25/0900Z BECMG 2412/2416 09008KT FEW016 SCT070

Observações e previsões do tempo de mais de 4000 aeroportos (mensagens METAR e TAF).

As estações disponíveis são os pontos amarelos e vermelhos sobre o mapa.

Mova o rato sobre o mapa para ver o nome da estação.

Depois clique no ponto para visualizar as observações e previsões meteorológicas.

Para alterar o mapa : clique nos botões verdes com uma cruz preta para aumentar o zoom; no botão verde com uma pitada de zoom; ou nas setas verdes para mapas adjacentes.


METAR-TAF: